| Date | Time | Temp. (oF) | Dew Point (oF) | Rel. Hum. (%) | Press. (in.) | Wind Dir. | Wind Speed (mph) | Hourly Rainfall (in.) |
|
|---|---|---|---|---|---|---|---|---|---|
| 1 | 12/13 | 00:00 | 31 | 31 | 100 | 30.44 | SE | 0 | 0.00 |
| 2 | 12/12 | 23:00 | 31 | 31 | 100 | 30.47 | NNE | 0 | 0.00 |
| 3 | 12/12 | 22:00 | 32 | 31 | 97 | 30.46 | SSW | 0 | 0.00 |
| 4 | 12/12 | 21:00 | 33 | 30 | 92 | 30.44 | SE | 0 | 0.00 |
| 5 | 12/12 | 20:00 | 33 | 30 | 89 | 30.45 | SSW | 0 | 0.00 |
| 6 | 12/12 | 19:00 | 36 | 29 | 76 | 30.41 | N | 4 | 0.00 |
| 7 | 12/12 | 18:00 | 37 | 29 | 74 | 30.42 | NNE | 1 | 0.00 |
| 8 | 12/12 | 17:00 | 38 | 29 | 72 | 30.43 | NE | 2 | 0.00 |
| 9 | 12/12 | 16:00 | 39 | 30 | 70 | 30.41 | NNE | 4 | 0.00 |
| 10 | 12/12 | 15:00 | 40 | 30 | 70 | 30.40 | N | 3 | 0.00 |
| 11 | 12/12 | 14:00 | 41 | 31 | 68 | 30.40 | NW | 2 | 0.00 |
| 12 | 12/12 | 13:00 | 40 | 30 | 68 | 30.40 | WNW | 3 | 0.00 |
| 13 | 12/12 | 12:00 | 40 | 30 | 68 | 30.42 | NE | 2 | 0.00 |
| 14 | 12/12 | 11:00 | 39 | 31 | 73 | 30.44 | N | 6 | 0.00 |
| 15 | 12/12 | 10:00 | 38 | 33 | 85 | 30.43 | N | 4 | 0.00 |
| 16 | 12/12 | 09:00 | 33 | 32 | 100 | 30.41 | NNE | 0 | 0.00 |
| 17 | 12/12 | 08:00 | 28 | 27 | 100 | 30.40 | SSW | 0 | 0.00 |
| 18 | 12/12 | 07:00 | 29 | 28 | 100 | 30.38 | SSW | 0 | 0.00 |
| 19 | 12/12 | 06:00 | 30 | 30 | 100 | 30.36 | WSW | 0 | 0.00 |
| 20 | 12/12 | 05:00 | 29 | 28 | 100 | 30.34 | SW | 0 | 0.00 |
| 21 | 12/12 | 04:00 | 30 | 30 | 100 | 30.32 | SW | 0 | 0.00 |
| 22 | 12/12 | 03:00 | 30 | 29 | 99 | 30.29 | SW | 0 | 0.01 |
| 23 | 12/12 | 02:00 | 30 | 29 | 96 | 30.28 | SSE | 0 | 0.00 |
| 24 | 12/12 | 01:00 | 33 | 29 | 86 | 30.25 | N | 0 | 0.00 |